createdAt,value
2018-01-12T00:01:23.292Z,159.93
2018-01-12T00:03:51.640Z,170.93
2018-01-12T00:06:20.088Z,160.67
2018-01-12T00:08:48.484Z,159.80
2018-01-12T00:11:16.827Z,159.60
2018-01-12T00:13:45.215Z,157.23
2018-01-12T00:16:13.603Z,164.03
2018-01-12T00:18:41.992Z,162.90
2018-01-12T00:21:10.466Z,150.90
2018-01-12T00:23:38.949Z,153.23
2018-01-12T00:26:07.315Z,171.67
2018-01-12T00:28:35.700Z,161.30
2018-01-12T00:31:04.056Z,151.67
2018-01-12T00:33:32.406Z,162.00
2018-01-12T00:36:01.178Z,174.73
2018-01-12T00:38:30.300Z,152.13
2018-01-12T00:40:58.643Z,164.73
2018-01-12T00:43:27.020Z,159.23
2018-01-12T00:45:55.388Z,164.90
2018-01-12T00:48:23.764Z,149.93
2018-01-12T00:50:52.416Z,151.50
2018-01-12T00:53:20.788Z,153.27
2018-01-12T00:55:49.156Z,149.77
2018-01-12T00:58:17.510Z,158.93
2018-01-12T01:00:46.268Z,149.43
2018-01-12T01:03:14.851Z,144.17
2018-01-12T01:05:43.224Z,160.80
2018-01-12T01:08:11.588Z,159.67
2018-01-12T01:10:39.954Z,154.17
2018-01-12T01:13:08.308Z,159.63
2018-01-12T01:15:37.763Z,149.23
2018-01-12T01:18:06.435Z,146.17
2018-01-12T01:20:34.837Z,151.77
2018-01-12T01:23:03.388Z,146.27
2018-01-12T01:25:31.749Z,155.00
2018-01-12T01:28:00.164Z,154.03
2018-01-12T01:30:28.528Z,170.03
2018-01-12T01:32:56.893Z,173.73
2018-01-12T01:35:25.262Z,154.03
2018-01-12T01:37:53.804Z,162.13
2018-01-12T01:40:22.175Z,178.83
2018-01-12T01:42:50.534Z,170.20
2018-01-12T01:45:19.028Z,170.80
2018-01-12T01:47:47.387Z,181.13
2018-01-12T01:50:15.783Z,157.93
2018-01-12T01:52:44.152Z,167.00
2018-01-12T01:55:12.499Z,178.60
2018-01-12T01:57:41.021Z,167.20
2018-01-12T02:00:09.372Z,172.37
2018-01-12T02:02:37.728Z,171.30
2018-01-12T02:05:06.539Z,158.73
2018-01-12T02:07:34.900Z,155.90
2018-01-12T02:10:03.642Z,151.03
2018-01-12T02:12:32.013Z,157.97
2018-01-12T02:15:00.393Z,150.53
2018-01-12T02:17:28.768Z,144.80
2018-01-12T02:19:57.118Z,161.10
2018-01-12T02:22:25.536Z,157.40
2018-01-12T02:24:54.004Z,162.87
2018-01-12T02:27:22.388Z,147.83
2018-01-12T02:29:50.768Z,157.17
2018-01-12T02:32:19.135Z,156.77
2018-01-12T02:34:47.489Z,172.90
2018-01-12T02:37:15.906Z,170.13
2018-01-12T02:39:44.280Z,167.60
2018-01-12T02:42:12.780Z,148.33
2018-01-12T02:44:41.926Z,171.53
2018-01-12T02:47:10.331Z,151.67
2018-01-12T02:49:38.708Z,160.23
2018-01-12T02:52:07.061Z,154.60
2018-01-12T02:54:35.432Z,153.07
2018-01-12T02:57:03.866Z,150.57
2018-01-12T02:59:32.218Z,154.97
2018-01-12T03:02:00.573Z,154.17
2018-01-12T03:04:28.991Z,165.43
2018-01-12T03:06:57.368Z,157.13
2018-01-12T03:09:25.712Z,158.10
2018-01-12T03:11:54.088Z,167.33
2018-01-12T03:14:22.508Z,175.00
2018-01-12T03:16:50.880Z,176.00
2018-01-12T03:19:19.307Z,176.63
2018-01-12T03:21:48.040Z,170.07
2018-01-12T03:24:16.401Z,161.43
2018-01-12T03:26:44.769Z,162.27
2018-01-12T03:29:13.160Z,180.27
2018-01-12T03:31:41.568Z,172.20
2018-01-12T03:34:09.936Z,172.80
2018-01-12T03:36:38.289Z,150.20
2018-01-12T03:39:06.696Z,176.20
2018-01-12T03:41:35.051Z,185.60
2018-01-12T03:44:03.440Z,183.90
2018-01-12T03:46:31.793Z,177.77
2018-01-12T03:49:00.627Z,176.27
2018-01-12T03:51:28.988Z,187.57
2018-01-12T03:53:57.376Z,183.63
2018-01-12T03:56:25.747Z,184.47
2018-01-12T03:58:54.144Z,214.57
2018-01-12T04:01:22.516Z,205.83
2018-01-12T04:03:50.892Z,191.33
2018-01-12T04:06:19.283Z,187.93
2018-01-12T04:08:47.759Z,188.83
2018-01-12T04:11:16.112Z,217.50
2018-01-12T04:13:44.475Z,215.63
2018-01-12T04:16:12.840Z,212.03
2018-01-12T04:18:41.196Z,215.87
2018-01-12T04:21:09.593Z,207.47
2018-01-12T04:23:38.444Z,226.23
2018-01-12T04:26:06.800Z,224.47
2018-01-12T04:28:35.195Z,211.37
2018-01-12T04:31:03.600Z,242.30
2018-01-12T04:33:31.979Z,256.20
2018-01-12T04:36:00.435Z,268.63
2018-01-12T04:38:28.812Z,255.23
2018-01-12T04:40:57.205Z,270.63
2018-01-12T04:43:25.555Z,251.77
2018-01-12T04:45:53.962Z,240.90
2018-01-12T04:48:22.320Z,219.70
2018-01-12T04:50:50.697Z,237.10
2018-01-12T04:53:19.056Z,216.57
2018-01-12T04:55:47.527Z,213.67
2018-01-12T04:58:16.364Z,232.30
2018-01-12T05:00:45.606Z,192.77
2018-01-12T05:03:14.031Z,206.50
2018-01-12T05:05:42.428Z,199.53
2018-01-12T05:08:10.793Z,202.43
2018-01-12T05:10:39.168Z,202.50
2018-01-12T05:13:07.524Z,213.53
2018-01-12T05:15:35.950Z,202.60
2018-01-12T05:18:04.300Z,213.17
2018-01-12T05:20:32.680Z,195.00
2018-01-12T05:23:01.086Z,183.43
2018-01-12T05:25:29.546Z,187.77
2018-01-12T05:27:57.892Z,193.47
2018-01-12T05:30:26.259Z,172.23
2018-01-12T05:32:55.000Z,174.17
2018-01-12T05:35:23.369Z,193.17
2018-01-12T05:37:51.748Z,194.80
2018-01-12T05:40:20.205Z,182.40
2018-01-12T05:42:48.560Z,184.83
2018-01-12T05:45:17.336Z,202.53
2018-01-12T05:47:46.202Z,190.07
2018-01-12T05:50:14.661Z,187.57
2018-01-12T05:52:43.050Z,174.57
2018-01-12T05:55:11.657Z,161.77
2018-01-12T05:57:40.095Z,150.47
2018-01-12T06:00:08.488Z,167.17
2018-01-12T06:02:54.676Z,162.77
2018-01-12T06:05:41.016Z,176.67
2018-01-12T06:08:09.363Z,161.00
2018-01-12T06:10:37.727Z,157.37
2018-01-12T06:13:06.137Z,157.00
2018-01-12T06:15:34.495Z,159.57
2018-01-12T06:18:02.858Z,135.20
2018-01-12T06:20:31.255Z,142.60
2018-01-12T06:22:59.621Z,133.83
2018-01-12T06:25:27.985Z,146.23
2018-01-12T06:27:56.354Z,130.33
2018-01-12T06:30:24.780Z,122.80
2018-01-12T06:32:53.148Z,124.63
2018-01-12T06:35:21.510Z,123.63
2018-01-12T06:37:49.899Z,119.07
2018-01-12T06:40:18.268Z,108.97
2018-01-12T06:42:46.661Z,114.73
2018-01-12T06:45:15.024Z,109.57
2018-01-12T06:47:43.376Z,94.60
2018-01-12T06:50:12.216Z,103.27
2018-01-12T06:52:40.580Z,101.93
2018-01-12T06:55:08.931Z,97.57
2018-01-12T06:57:37.911Z,103.93
2018-01-12T07:00:06.714Z,94.93
2018-01-12T07:02:35.168Z,89.00
2018-01-12T07:05:03.612Z,77.60
2018-01-12T07:07:32.022Z,83.90
2018-01-12T07:10:00.380Z,85.27
2018-01-12T07:12:28.735Z,76.70
2018-01-12T07:14:57.135Z,77.63
2018-01-12T07:17:25.714Z,78.60
2018-01-12T07:19:54.067Z,98.37
2018-01-12T07:22:27.787Z,88.93
2018-01-12T07:24:56.159Z,88.17
2018-01-12T07:27:24.573Z,95.03
2018-01-12T07:29:52.892Z,87.37
2018-01-12T07:32:21.419Z,99.13
2018-01-12T07:34:49.783Z,92.30
2018-01-12T07:37:18.144Z,89.87
2018-01-12T07:39:46.491Z,88.50
2018-01-12T07:42:15.329Z,88.00
2018-01-12T07:44:43.676Z,87.20
2018-01-12T07:47:12.096Z,75.70
2018-01-12T07:49:40.455Z,77.80
2018-01-12T07:52:08.849Z,77.33
2018-01-12T07:54:37.245Z,83.67
2018-01-12T07:57:05.735Z,81.53
2018-01-12T07:59:34.089Z,95.87
2018-01-12T08:02:07.961Z,76.00
2018-01-12T08:04:36.323Z,76.33
2018-01-12T08:07:05.435Z,74.00
2018-01-12T08:09:33.781Z,71.97
2018-01-12T08:12:02.136Z,69.50
2018-01-12T08:14:30.493Z,72.43
2018-01-12T08:16:58.860Z,68.30
2018-01-12T08:19:27.214Z,87.20
2018-01-12T08:21:56.052Z,74.17
2018-01-12T08:24:24.424Z,76.17
2018-01-12T08:26:52.789Z,80.90
2018-01-12T08:29:21.196Z,73.07
2018-01-12T08:31:49.660Z,76.73
2018-01-12T08:34:18.038Z,94.17
2018-01-12T08:36:46.396Z,75.53
2018-01-12T08:39:14.803Z,75.33
2018-01-12T08:41:43.174Z,75.07
2018-01-12T08:44:11.514Z,84.23
2018-01-12T08:46:40.299Z,83.87
2018-01-12T08:49:09.890Z,85.07
2018-01-12T08:51:38.655Z,69.23
2018-01-12T08:54:07.051Z,69.13
2018-01-12T08:56:35.400Z,67.20
2018-01-12T08:59:03.780Z,68.17
2018-01-12T09:01:32.264Z,72.30
2018-01-12T09:04:00.615Z,70.17
2018-01-12T09:06:28.967Z,70.23
2018-01-12T09:08:58.413Z,58.87
2018-01-12T09:11:26.771Z,69.00
2018-01-12T09:13:57.254Z,73.77
2018-01-12T09:16:28.735Z,63.97
2018-01-12T09:19:29.269Z,65.13
2018-01-12T09:21:58.101Z,72.03
2018-01-12T09:24:26.438Z,67.60
2018-01-12T09:26:54.857Z,67.93
2018-01-12T09:29:23.236Z,65.37
2018-01-12T09:31:52.442Z,68.40
2018-01-12T09:34:38.519Z,74.40
2018-01-12T09:37:06.872Z,64.03
2018-01-12T09:39:43.266Z,76.40
2018-01-12T09:42:11.623Z,67.37
2018-01-12T09:44:40.031Z,70.50
2018-01-12T09:47:21.898Z,62.90
2018-01-12T09:49:50.277Z,64.17
2018-01-12T09:52:18.685Z,62.63
2018-01-12T09:54:47.141Z,59.47
2018-01-12T09:57:15.550Z,68.47
2018-01-12T09:59:44.695Z,74.30
2018-01-12T10:02:13.563Z,70.23
2018-01-12T10:04:41.916Z,68.37
2018-01-12T10:07:19.913Z,61.30
2018-01-12T10:09:50.149Z,67.40
2018-01-12T10:12:18.465Z,77.03
2018-01-12T10:14:47.302Z,73.20
2018-01-12T10:17:15.745Z,75.33
2018-01-12T10:23:04.178Z,69.97
2018-01-12T10:25:32.633Z,78.23
2018-01-12T10:28:00.984Z,82.40
2018-01-12T10:30:34.717Z,66.07
2018-01-12T10:33:08.553Z,76.30
2018-01-12T10:38:38.004Z,84.40
2018-01-12T10:41:18.816Z,74.00
2018-01-12T10:43:47.168Z,70.83
2018-01-12T10:46:35.235Z,69.23
2018-01-12T10:49:19.184Z,71.67
2018-01-12T10:51:47.871Z,73.43
2018-01-12T10:54:16.217Z,61.73
2018-01-12T10:56:44.574Z,70.30
2018-01-12T10:59:12.950Z,62.80
2018-01-12T11:01:41.694Z,58.70
2018-01-12T11:04:10.078Z,68.83
2018-01-12T11:06:38.431Z,66.43
2018-01-12T11:09:06.779Z,79.43
2018-01-12T11:11:35.129Z,62.07
2018-01-12T11:14:03.489Z,61.67
2018-01-12T11:16:31.851Z,61.30
2018-01-12T11:19:00.187Z,71.30
2018-01-12T11:21:29.023Z,77.13
2018-01-12T11:23:57.398Z,66.13
2018-01-12T11:26:25.751Z,65.50
2018-01-12T11:28:54.095Z,68.43
2018-01-12T11:31:22.517Z,63.03
2018-01-12T11:33:50.921Z,65.53
2018-01-12T11:36:19.287Z,67.10
2018-01-12T11:38:47.627Z,70.80
2018-01-12T11:41:16.470Z,59.67
2018-01-12T11:43:44.820Z,74.97
2018-01-12T11:46:13.215Z,63.97
2018-01-12T11:48:41.572Z,64.50
2018-01-12T11:51:09.929Z,68.57
2018-01-12T11:53:38.763Z,71.50
2018-01-12T11:56:07.116Z,68.47
2018-01-12T11:58:35.528Z,64.70
2018-01-12T12:01:03.892Z,65.63
2018-01-12T12:03:32.261Z,63.50
2018-01-12T12:06:00.607Z,76.60
2018-01-12T12:08:29.035Z,62.43
2018-01-12T12:10:57.496Z,72.53
2018-01-12T12:13:25.852Z,69.03
2018-01-12T12:15:54.691Z,73.97
2018-01-12T12:18:23.064Z,68.90
2018-01-12T12:20:51.464Z,65.20
2018-01-12T12:23:19.868Z,72.60
2018-01-12T12:25:48.625Z,61.40
2018-01-12T12:28:16.999Z,64.40
2018-01-12T12:30:45.371Z,70.67
2018-01-12T12:33:13.715Z,68.83
2018-01-12T12:35:42.228Z,64.03
2018-01-12T12:38:10.575Z,79.57
2018-01-12T12:40:38.933Z,69.53
2018-01-12T12:43:07.674Z,66.00
2018-01-12T12:45:36.032Z,77.27
2018-01-12T12:48:04.427Z,75.93
2018-01-12T12:50:32.838Z,80.03
2018-01-12T12:53:01.265Z,70.50
2018-01-12T12:55:29.633Z,78.27
2018-01-12T12:57:58.046Z,80.93
2018-01-12T13:00:26.408Z,79.87
2018-01-12T13:02:54.763Z,75.53
2018-01-12T13:05:23.598Z,73.33
2018-01-12T13:07:52.053Z,70.60
2018-01-12T13:10:20.457Z,70.10
2018-01-12T13:12:48.804Z,82.83
2018-01-12T13:15:17.161Z,79.57
2018-01-12T13:17:45.905Z,95.53
2018-01-12T13:20:14.271Z,79.67
2018-01-12T13:22:42.615Z,81.03
2018-01-12T13:25:11.051Z,80.83
2018-01-12T13:27:39.432Z,78.33
2018-01-12T13:30:07.903Z,69.77
2018-01-12T13:32:36.251Z,79.20
2018-01-12T13:35:04.626Z,81.57
2018-01-12T13:37:32.970Z,90.80
2018-01-12T13:40:01.870Z,78.30
2018-01-12T13:42:30.685Z,90.63
2018-01-12T13:44:59.064Z,82.77
2018-01-12T13:47:27.427Z,76.10
2018-01-12T13:49:55.839Z,79.03
2018-01-12T13:52:24.199Z,78.00
2018-01-12T13:54:52.594Z,77.17
2018-01-12T13:57:20.962Z,69.43
2018-01-12T13:59:49.360Z,75.27
2018-01-12T14:02:17.789Z,69.87
2018-01-12T14:04:46.631Z,82.43
2018-01-12T14:07:14.984Z,80.67
2018-01-12T14:09:43.338Z,85.90
2018-01-12T14:12:12.115Z,79.60
2018-01-12T14:14:40.987Z,85.97
2018-01-12T14:17:09.359Z,83.50
2018-01-12T14:19:37.710Z,73.23
2018-01-12T14:22:06.074Z,81.27
2018-01-12T14:24:34.428Z,74.90
2018-01-12T14:27:03.262Z,65.37
2018-01-12T14:29:31.618Z,82.50
2018-01-12T14:32:00.026Z,74.13
2018-01-12T14:34:28.482Z,83.07
2018-01-12T14:36:56.843Z,79.03
2018-01-12T14:39:25.677Z,95.00
2018-01-12T14:41:54.042Z,84.70
2018-01-12T14:44:22.489Z,78.97
2018-01-12T14:46:50.818Z,82.23
2018-01-12T14:49:19.179Z,74.63
2018-01-12T14:51:47.527Z,85.63
2018-01-12T14:54:15.880Z,88.63
2018-01-12T14:56:44.229Z,78.07
2018-01-12T14:59:12.579Z,81.03
2018-01-12T15:01:40.991Z,88.20
2018-01-12T15:04:09.379Z,95.27
2018-01-12T15:06:37.750Z,88.20
2018-01-12T15:09:06.115Z,84.10
2018-01-12T15:11:34.496Z,76.93
2018-01-12T15:14:02.844Z,88.37
2018-01-12T15:16:31.253Z,87.43
2018-01-12T15:18:59.598Z,70.20
2018-01-12T15:21:27.989Z,89.47
2018-01-12T15:23:56.382Z,95.07
2018-01-12T15:26:24.735Z,94.03
2018-01-12T15:28:53.091Z,93.67
2018-01-12T15:31:21.935Z,93.20
2018-01-12T15:33:50.314Z,94.53
2018-01-12T15:36:18.692Z,93.33
2018-01-12T15:38:47.048Z,91.37
2018-01-12T15:41:15.606Z,109.90
2018-01-12T15:43:44.454Z,84.50
2018-01-12T15:46:12.947Z,95.57
2018-01-12T15:48:41.353Z,99.00
2018-01-12T15:51:09.671Z,99.37
2018-01-12T15:53:38.035Z,92.40
2018-01-12T15:56:06.439Z,106.70
2018-01-12T15:58:34.787Z,89.83
2018-01-12T16:01:03.138Z,95.83
2018-01-12T16:03:31.998Z,103.77
2018-01-12T16:06:00.365Z,107.30
2018-01-12T16:08:28.862Z,103.50
2018-01-12T16:10:57.352Z,106.10
2018-01-12T16:13:25.815Z,105.80
2018-01-12T16:15:54.285Z,116.63
2018-01-12T16:18:22.666Z,117.60
2018-01-12T16:20:51.011Z,113.60
2018-01-12T16:23:19.425Z,109.53
2018-01-12T16:25:47.805Z,116.60
2018-01-12T16:28:16.193Z,121.67
2018-01-12T16:30:44.552Z,111.87
2018-01-12T16:33:12.902Z,113.30
2018-01-12T16:35:41.319Z,120.80
2018-01-12T16:38:09.678Z,108.57
2018-01-12T16:40:38.041Z,128.83
2018-01-12T16:43:06.392Z,123.10
2018-01-12T16:45:34.764Z,116.30
2018-01-12T16:48:03.216Z,108.00
2018-01-12T16:50:31.575Z,115.03
2018-01-12T16:52:59.927Z,117.83
2018-01-12T16:55:28.361Z,117.50
2018-01-12T16:57:56.749Z,114.20
2018-01-12T17:00:25.235Z,112.87
2018-01-12T17:02:53.779Z,114.30
2018-01-12T17:05:22.259Z,107.03
2018-01-12T17:07:50.652Z,106.53
2018-01-12T17:10:19.048Z,113.27
2018-01-12T17:12:47.407Z,106.50
2018-01-12T17:15:15.772Z,105.20
2018-01-12T17:17:44.261Z,96.93
2018-01-12T17:20:12.669Z,105.93
2018-01-12T17:22:41.036Z,98.00
2018-01-12T17:25:09.392Z,93.27
2018-01-12T17:27:37.759Z,100.43
2018-01-12T17:30:06.126Z,103.97
2018-01-12T17:32:34.488Z,101.80
2018-01-12T17:35:03.233Z,94.77
2018-01-12T17:37:31.726Z,88.03
2018-01-12T17:40:00.083Z,100.30
2018-01-12T17:42:28.444Z,92.03
2018-01-12T17:44:56.791Z,89.00
2018-01-12T17:47:25.555Z,84.57
2018-01-12T17:49:54.008Z,89.77
2018-01-12T17:52:22.387Z,84.77
2018-01-12T17:54:50.767Z,90.63
2018-01-12T17:57:19.158Z,88.77
2018-01-12T17:59:47.518Z,84.77
2018-01-12T18:02:15.871Z,89.27
2018-01-12T18:04:44.227Z,89.43
2018-01-12T18:07:13.068Z,85.97
2018-01-12T18:09:41.531Z,84.57
2018-01-12T18:12:09.867Z,96.27
2018-01-12T18:14:38.234Z,94.07
2018-01-12T18:17:06.615Z,90.67
2018-01-12T18:19:35.046Z,98.50
2018-01-12T18:22:03.395Z,96.43
2018-01-12T18:24:32.151Z,92.93
2018-01-12T18:27:00.530Z,88.23
2018-01-12T18:29:28.904Z,96.47
2018-01-12T18:31:57.280Z,99.33
2018-01-12T18:34:25.635Z,95.00
2018-01-12T18:36:54.038Z,93.80
2018-01-12T18:39:22.507Z,100.60
2018-01-12T18:41:50.865Z,76.90
2018-01-12T18:44:19.219Z,93.47
2018-01-12T18:46:47.976Z,95.50
2018-01-12T18:49:16.327Z,91.00
2018-01-12T18:51:44.680Z,100.70
2018-01-12T18:54:13.088Z,93.47
2018-01-12T18:56:41.523Z,96.37
2018-01-12T18:59:10.283Z,83.43
2018-01-12T19:01:38.736Z,95.87
2018-01-12T19:04:07.223Z,96.37
2018-01-12T19:06:35.605Z,102.80
2018-01-12T19:09:03.957Z,89.17
2018-01-12T19:11:32.351Z,91.83
2018-01-12T19:14:00.735Z,103.63
2018-01-12T19:16:29.088Z,91.90
2018-01-12T19:18:57.672Z,103.47
2018-01-12T19:21:26.077Z,110.47
2018-01-12T19:23:54.422Z,100.37
2018-01-12T19:26:22.779Z,99.53
2018-01-12T19:28:51.532Z,107.37
2018-01-12T19:31:19.909Z,113.60
2018-01-12T19:33:48.265Z,117.83
2018-01-12T19:36:16.638Z,116.90
2018-01-12T19:38:45.038Z,125.97
2018-01-12T19:41:13.409Z,119.70
2018-01-12T19:43:41.759Z,126.90
2018-01-12T19:46:10.167Z,131.57
2018-01-12T19:48:38.529Z,134.63
2018-01-12T19:51:06.913Z,117.90
2018-01-12T19:53:35.268Z,104.67
2018-01-12T19:56:03.622Z,121.97
2018-01-12T19:58:32.400Z,129.93
2018-01-12T20:01:00.746Z,114.57
2018-01-12T20:03:29.097Z,141.50
2018-01-12T20:05:57.453Z,148.23
2018-01-12T20:08:26.200Z,126.40
2018-01-12T20:10:54.587Z,134.00
2018-01-12T20:13:22.954Z,131.63
2018-01-12T20:15:51.318Z,130.93
2018-01-12T20:18:19.666Z,109.00
2018-01-12T20:20:48.033Z,139.20
2018-01-12T20:23:16.771Z,127.77
2018-01-12T20:25:45.138Z,129.27
2018-01-12T20:28:13.488Z,130.27
2018-01-12T20:30:41.838Z,138.53
2018-01-12T20:33:10.191Z,118.33
2018-01-12T20:35:38.560Z,128.00
2018-01-12T20:38:06.918Z,117.30
2018-01-12T20:40:35.284Z,126.43
2018-01-12T20:43:03.631Z,119.30
2018-01-12T20:45:31.995Z,129.23
2018-01-12T20:48:00.354Z,126.97
2018-01-12T20:50:28.719Z,121.37
2018-01-12T20:52:57.070Z,118.17
2018-01-12T20:55:25.446Z,130.60
2018-01-12T20:57:53.804Z,120.00
2018-01-12T21:00:22.163Z,119.77
2018-01-12T21:02:50.514Z,125.90
2018-01-12T21:05:18.884Z,125.17
2018-01-12T21:07:47.227Z,112.33
2018-01-12T21:10:15.981Z,138.10
2018-01-12T21:12:44.339Z,133.50
2018-01-12T21:15:12.721Z,121.07
2018-01-12T21:17:41.096Z,115.93
2018-01-12T21:20:09.442Z,132.67
2018-01-12T21:22:38.198Z,129.43
2018-01-12T21:25:06.559Z,129.60
2018-01-12T21:27:34.918Z,132.50
2018-01-12T21:30:03.289Z,124.63
2018-01-12T21:32:31.639Z,111.73
2018-01-12T21:34:59.981Z,102.40
2018-01-12T21:37:28.432Z,117.27
2018-01-12T21:39:56.779Z,109.83
2018-01-12T21:42:25.542Z,114.83
2018-01-12T21:44:53.987Z,132.03
2018-01-12T21:47:22.347Z,118.70
2018-01-12T21:49:50.704Z,120.33
2018-01-12T21:52:19.068Z,118.10
2018-01-12T21:54:47.923Z,122.40
2018-01-12T21:57:16.285Z,118.47
2018-01-12T21:59:44.650Z,123.10
2018-01-12T22:02:13.021Z,114.60
2018-01-12T22:04:41.429Z,130.97
2018-01-12T22:07:09.800Z,120.20
2018-01-12T22:09:38.193Z,119.07
2018-01-12T22:12:06.667Z,116.40
2018-01-12T22:14:35.046Z,122.83
2018-01-12T22:17:03.416Z,125.67
2018-01-12T22:19:31.803Z,112.10
2018-01-12T22:22:00.156Z,109.10
2018-01-12T22:24:28.560Z,121.13
2018-01-12T22:26:56.945Z,112.07
2018-01-12T22:29:25.303Z,130.87
2018-01-12T22:31:53.672Z,123.77
2018-01-12T22:34:22.023Z,107.63
2018-01-12T22:36:50.379Z,117.40
2018-01-12T22:39:18.750Z,113.40
2018-01-12T22:41:47.316Z,119.00
2018-01-12T22:44:15.679Z,123.53
2018-01-12T22:46:44.054Z,112.80
2018-01-12T22:49:12.407Z,109.60
2018-01-12T22:51:40.772Z,113.57
2018-01-12T22:54:09.527Z,107.43
2018-01-12T22:56:38.003Z,116.93
2018-01-12T22:59:06.376Z,120.33
2018-01-12T23:01:34.730Z,112.17
2018-01-12T23:04:03.141Z,113.27
2018-01-12T23:06:31.564Z,125.60
2018-01-12T23:09:01.227Z,114.77
2018-01-12T23:11:29.655Z,130.63
2018-01-12T23:13:58.417Z,120.80
2018-01-12T23:16:26.771Z,108.00
2018-01-12T23:18:55.135Z,114.97
2018-01-12T23:21:23.534Z,118.33
2018-01-12T23:23:51.927Z,114.77
2018-01-12T23:26:20.395Z,111.43
2018-01-12T23:28:48.772Z,112.90
2018-01-12T23:31:17.143Z,99.70
2018-01-12T23:33:45.536Z,92.83
2018-01-12T23:36:13.941Z,107.40
2018-01-12T23:38:42.699Z,110.30
2018-01-12T23:41:11.080Z,108.60
2018-01-12T23:43:39.464Z,117.40
2018-01-12T23:46:07.841Z,109.77
2018-01-12T23:48:36.211Z,121.40
2018-01-12T23:51:04.695Z,101.57
2018-01-12T23:53:33.051Z,102.80
2018-01-12T23:56:01.436Z,106.77
2018-01-12T23:58:29.786Z,116.93
